Time;durP1;ratioP1;P1;durP2;ratioP2;P2;SDS_P1;SDS_P2;PMS_P1;PMS_P2;Temp;Humidity;BMP_temperature;BMP_pressure;BME280_temperature;BME280_humidity;BME280_pressure;Samples;Min_cycle;Max_cycle;Signal;HPM_P1;HPM_P2
2022/08/20 00:00:36;;;;;;;0.30;0.30;;;;;;;23.08;66.98;101618.78;5044332;28;20025;-85
2022/08/20 00:03:07;;;;;;;0.20;0.20;;;;;;;23.08;67.22;101623.34;5043567;28;20071;-86
2022/08/20 00:05:38;;;;;;;0.10;0.10;;;;;;;23.14;67.19;101616.66;5041775;28;20179;-88
2022/08/20 00:08:06;;;;;;;0.05;0.05;;;;;;;23.19;67.14;101614.59;5041290;28;20528;-86
2022/08/20 00:10:35;;;;;;;0.57;0.57;;;;;;;23.20;67.05;101622.63;5050508;28;20074;-87
2022/08/20 00:13:02;;;;;;;0.10;0.10;;;;;;;23.21;66.79;101618.94;5063318;28;20023;-88
2022/08/20 00:15:31;;;;;;;0.20;0.20;;;;;;;23.23;66.93;101616.16;5050341;28;20506;-86
2022/08/20 00:17:58;;;;;;;0.20;0.20;;;;;;;23.23;66.80;101622.41;5044194;28;20041;-87
2022/08/20 00:20:28;;;;;;;0.10;0.10;;;;;;;23.24;66.92;101620.56;5041663;28;20026;-87
2022/08/20 00:22:55;;;;;;;0.10;0.10;;;;;;;23.23;66.92;101619.72;5042309;28;20017;-86
2022/08/20 00:25:23;;;;;;;0.32;0.32;;;;;;;23.24;66.66;101623.28;5045131;28;20029;-87
2022/08/20 00:27:49;;;;;;;0.10;0.10;;;;;;;23.24;66.88;101629.56;5048823;28;20025;-87
2022/08/20 00:30:16;;;;;;;0.10;0.10;;;;;;;23.26;66.75;101626.78;5043728;28;20538;-87
2022/08/20 00:32:46;;;;;;;0.10;0.10;;;;;;;23.27;66.96;101628.50;5045263;28;20405;-86
2022/08/20 00:35:15;;;;;;;0.10;0.10;;;;;;;23.28;66.89;101627.56;5044981;28;20054;-86
2022/08/20 00:37:42;;;;;;;0.08;0.08;;;;;;;23.30;66.90;101627.44;5042321;28;20043;-87
2022/08/20 00:40:11;;;;;;;0.45;0.45;;;;;;;23.30;66.96;101630.16;5044456;28;20029;-87
2022/08/20 00:42:50;;;;;;;0.10;0.10;;;;;;;23.34;66.74;101624.47;5044115;28;20493;-85
2022/08/20 00:45:18;;;;;;;0.10;0.10;;;;;;;23.30;66.56;101624.75;5043689;28;20036;-85
2022/08/20 00:47:45;;;;;;;0.10;0.10;;;;;;;23.29;66.61;101626.59;5029030;28;20029;-85
2022/08/20 00:50:15;;;;;;;0.10;0.10;;;;;;;23.30;66.42;101622.91;5030272;28;20025;-84
2022/08/20 00:52:43;;;;;;;0.10;0.10;;;;;;;23.25;66.54;101619.63;5031576;28;20510;-83
2022/08/20 00:55:11;;;;;;;0.10;0.10;;;;;;;23.25;66.53;101620.50;5030752;28;20044;-85
2022/08/20 00:57:42;;;;;;;0.10;0.10;;;;;;;23.30;66.32;101619.34;5029416;28;20040;-85
2022/08/20 01:00:13;;;;;;;0.10;0.10;;;;;;;23.22;66.21;101623.38;5036327;28;20401;-85
2022/08/20 01:02:41;;;;;;;0.10;0.10;;;;;;;23.19;66.12;101614.59;5031616;28;20022;-85
2022/08/20 01:05:08;;;;;;;0.98;0.98;;;;;;;23.13;66.14;101614.94;5031041;28;20017;-85
2022/08/20 01:07:36;;;;;;;0.17;0.17;;;;;;;23.14;66.14;101622.06;5029640;28;20071;-84
2022/08/20 01:12:48;;;;;;;0.25;0.25;;;;;;;22.97;65.38;101623.09;5064296;27;20382;-79
2022/08/20 01:15:17;;;;;;;0.20;0.20;;;;;;;22.94;65.01;101626.84;5065528;28;20071;-79
2022/08/20 01:17:48;;;;;;;0.22;0.22;;;;;;;22.88;64.54;101629.91;5065382;28;20029;-78
2022/08/20 01:20:22;;;;;;;0.65;0.65;;;;;;;22.72;62.52;101617.31;5066217;27;20025;-78
2022/08/20 01:28:44;;;;;;;0.32;0.32;;;;;;;22.70;63.30;101634.59;5180812;27;20213;-79
2022/08/20 01:31:18;;;;;;;0.10;0.10;;;;;;;22.69;63.77;101640.94;5060306;27;2601965;-79
2022/08/20 01:33:45;;;;;;;0.10;0.10;;;;;;;22.60;63.04;101643.25;5131342;28;20507;-79
2022/08/20 01:36:15;;;;;;;0.10;0.10;;;;;;;22.59;63.25;101641.50;5131737;28;20019;-79
2022/08/20 01:38:43;;;;;;;0.10;0.10;;;;;;;22.57;63.58;101646.09;5131814;28;20045;-79
2022/08/20 01:44:02;;;;;;;0.10;0.10;;;;;;;22.55;63.96;101645.31;5103026;27;20764;-76
2022/08/20 01:46:34;;;;;;;0.10;0.10;;;;;;;22.52;63.56;101650.91;5092157;28;20031;-77
2022/08/20 01:49:10;;;;;;;0.10;0.10;;;;;;;22.58;63.45;101647.84;5088634;28;20035;-77
2022/08/20 01:51:36;;;;;;;0.30;0.30;;;;;;;22.48;63.29;101648.47;5105296;28;20020;-77
2022/08/20 01:54:02;;;;;;;0.05;0.05;;;;;;;22.47;63.03;101655.72;5076436;28;20023;-77
2022/08/20 01:56:31;;;;;;;0.10;0.10;;;;;;;22.40;63.00;101649.78;5097566;28;20502;-76
2022/08/20 01:58:59;;;;;;;0.10;0.10;;;;;;;22.45;63.36;101650.41;5090617;28;20063;-76
2022/08/20 02:01:39;;;;;;;0.20;0.20;;;;;;;22.47;63.10;101650.31;5093269;28;20024;-77
2022/08/20 02:04:08;;;;;;;0.65;0.65;;;;;;;22.38;63.21;101642.72;5085863;28;20106;-76
2022/08/20 02:06:39;;;;;;;0.10;0.10;;;;;;;22.33;63.31;101650.19;5099954;28;20032;-76
2022/08/20 02:09:07;;;;;;;0.10;0.10;;;;;;;22.40;63.27;101651.63;5100617;28;20107;-76
2022/08/20 02:11:35;;;;;;;0.10;0.10;;;;;;;22.34;63.20;101665.44;5091440;28;20027;-76
2022/08/20 02:14:05;;;;;;;0.10;0.10;;;;;;;22.34;63.45;101670.81;5104528;28;20020;-77
2022/08/20 02:16:35;;;;;;;0.40;0.40;;;;;;;22.35;63.31;101661.78;5095580;28;20050;-77
2022/08/20 02:19:08;;;;;;;0.10;0.10;;;;;;;22.34;63.37;101660.88;5095993;28;20374;-76
2022/08/20 02:21:36;;;;;;;0.10;0.10;;;;;;;22.33;63.38;101658.28;5103430;28;20032;-76
2022/08/20 02:24:03;;;;;;;0.10;0.10;;;;;;;22.34;63.37;101660.03;5090875;28;20032;-76
2022/08/20 02:26:32;;;;;;;0.10;0.10;;;;;;;22.34;63.28;101666.28;5100724;28;20028;-76
2022/08/20 02:28:58;;;;;;;0.20;0.20;;;;;;;22.35;63.30;101661.78;5098589;28;20119;-76
2022/08/20 02:31:25;;;;;;;0.10;0.10;;;;;;;22.35;63.20;101657.22;5090883;28;20031;-77
2022/08/20 02:33:51;;;;;;;0.20;0.20;;;;;;;22.33;63.03;101659.16;5104211;28;20370;-76
2022/08/20 02:36:18;;;;;;;0.50;0.50;;;;;;;22.11;63.75;101654.09;5087505;28;20439;-76
2022/08/20 02:38:45;;;;;;;0.10;0.10;;;;;;;21.99;63.89;101661.03;5096869;28;20050;-76
2022/08/20 02:41:14;;;;;;;0.05;0.05;;;;;;;21.94;64.13;101653.22;5093701;28;20035;-76
2022/08/20 02:43:40;;;;;;;0.10;0.10;;;;;;;21.89;64.24;101660.69;5103858;28;20031;-76
2022/08/20 02:46:07;;;;;;;0.43;0.35;;;;;;;21.79;63.95;101660.34;5091875;28;20051;-78
2022/08/20 02:48:34;;;;;;;0.10;0.10;;;;;;;21.77;63.94;101661.34;5103052;28;20096;-79
2022/08/20 02:51:03;;;;;;;0.10;0.10;;;;;;;21.73;63.56;101670.56;5085835;28;20028;-78
2022/08/20 02:53:36;;;;;;;0.10;0.10;;;;;;;21.68;63.06;101656.47;5083380;28;20017;-78
2022/08/20 02:56:03;;;;;;;0.13;0.13;;;;;;;21.62;63.03;101655.84;5081623;28;20032;-78
2022/08/20 02:58:29;;;;;;;0.20;0.20;;;;;;;21.59;63.57;101653.28;5082987;28;20024;-78
2022/08/20 03:00:56;;;;;;;0.10;0.10;;;;;;;21.54;63.36;101649.94;5084539;28;20651;-78
2022/08/20 03:03:23;;;;;;;0.10;0.10;;;;;;;21.50;63.75;101653.78;5090104;28;20115;-78
2022/08/20 03:05:52;;;;;;;0.10;0.10;;;;;;;21.47;63.79;101656.59;5079520;28;20067;-78
2022/08/20 03:08:18;;;;;;;0.00;0.00;;;;;;;21.41;63.50;101660.53;5073459;28;20678;-78
2022/08/20 03:10:46;;;;;;;0.10;0.10;;;;;;;21.37;63.67;101655.38;5095651;28;20043;-78
2022/08/20 03:13:14;;;;;;;0.10;0.10;;;;;;;21.30;63.62;101661.06;5092982;28;20054;-78
2022/08/20 03:15:44;;;;;;;0.10;0.10;;;;;;;21.25;63.88;101657.75;5084506;28;20020;-78
2022/08/20 03:18:11;;;;;;;0.10;0.10;;;;;;;21.20;64.20;101653.53;5071213;28;20028;-78
2022/08/20 03:20:37;;;;;;;0.13;0.13;;;;;;;21.16;64.15;101664.50;5077702;28;20112;-78
2022/08/20 03:23:04;;;;;;;0.10;0.10;;;;;;;21.11;64.19;101662.97;5093689;28;20024;-77
2022/08/20 03:25:32;;;;;;;0.10;0.10;;;;;;;21.05;64.48;101664.19;5061806;28;20031;-78
2022/08/20 03:27:58;;;;;;;0.10;0.10;;;;;;;21.03;64.48;101665.22;5088102;28;20043;-78
2022/08/20 03:30:26;;;;;;;0.20;0.20;;;;;;;20.99;64.69;101678.81;5086877;28;20028;-78
2022/08/20 03:32:53;;;;;;;0.10;0.10;;;;;;;21.00;64.63;101675.19;5078955;28;20279;-78
2022/08/20 03:35:21;;;;;;;0.10;0.10;;;;;;;20.96;64.79;101670.00;5091897;28;20062;-78
2022/08/20 03:37:48;;;;;;;0.20;0.20;;;;;;;20.93;64.81;101670.19;5081815;28;20119;-78
2022/08/20 03:40:19;;;;;;;0.10;0.10;;;;;;;20.89;64.94;101669.47;5086298;28;20085;-79
2022/08/20 03:42:45;;;;;;;0.10;0.10;;;;;;;20.84;65.00;101671.53;5089115;28;20096;-79
2022/08/20 03:45:12;;;;;;;4.47;1.30;;;;;;;20.78;65.02;101672.69;5079898;28;20036;-79
2022/08/20 03:47:40;;;;;;;0.10;0.10;;;;;;;20.74;64.93;101672.94;5091344;28;20058;-79
2022/08/20 03:50:08;;;;;;;0.10;0.10;;;;;;;20.77;64.91;101683.53;5073723;28;20031;-78
2022/08/20 03:52:35;;;;;;;0.30;0.30;;;;;;;20.72;65.15;101677.53;5072209;28;20028;-78
2022/08/20 03:55:03;;;;;;;0.10;0.10;;;;;;;20.63;65.15;101678.81;5077056;28;20037;-78
2022/08/20 03:57:29;;;;;;;0.10;0.10;;;;;;;20.57;65.10;101677.28;5096262;28;20180;-78
2022/08/20 03:59:55;;;;;;;0.50;0.50;;;;;;;20.53;65.41;101673.00;5096200;28;20077;-78
2022/08/20 04:02:21;;;;;;;0.30;0.30;;;;;;;20.50;65.25;101678.56;5095174;28;20024;-78
2022/08/20 04:04:47;;;;;;;0.10;0.10;;;;;;;20.49;65.46;101668.72;5094926;28;20040;-78
2022/08/20 04:07:24;;;;;;;0.10;0.10;;;;;;;20.51;65.63;101681.16;5094731;28;20032;-78
2022/08/20 04:09:51;;;;;;;0.10;0.10;;;;;;;20.51;65.71;101677.56;5095578;28;20107;-78
2022/08/20 04:12:17;;;;;;;0.20;0.20;;;;;;;20.51;65.80;101677.56;5081310;28;20244;-78
2022/08/20 04:14:43;;;;;;;0.20;0.20;;;;;;;20.49;65.72;101677.66;5074800;28;20513;-78
2022/08/20 04:17:12;;;;;;;0.30;0.30;;;;;;;20.47;65.88;101692.16;5071699;28;20031;-79
2022/08/20 04:19:39;;;;;;;0.10;0.10;;;;;;;20.48;65.52;101692.06;5073090;28;20024;-79
2022/08/20 04:22:06;;;;;;;0.20;0.20;;;;;;;20.42;65.35;101696.88;5073414;28;20397;-79
2022/08/20 04:24:34;;;;;;;0.10;0.10;;;;;;;20.44;65.58;101695.00;5074053;28;20024;-78
2022/08/20 04:27:03;;;;;;;0.10;0.10;;;;;;;20.36;66.02;101696.22;5074056;28;20024;-79
2022/08/20 04:29:30;;;;;;;0.10;0.10;;;;;;;20.34;66.05;101700.81;5074117;28;20210;-78
2022/08/20 04:31:56;;;;;;;0.10;0.10;;;;;;;20.36;65.73;101700.72;5078909;28;20035;-79
2022/08/20 04:34:22;;;;;;;0.20;0.20;;;;;;;20.36;66.05;101698.94;5094692;28;20102;-79
2022/08/20 04:36:49;;;;;;;0.10;0.10;;;;;;;20.33;65.78;101699.06;5094753;28;20040;-79
2022/08/20 04:39:15;;;;;;;0.05;0.05;;;;;;;20.29;65.79;101692.09;5093788;28;20508;-78
2022/08/20 04:41:42;;;;;;;0.20;0.20;;;;;;;20.17;66.09;101698.03;5093211;28;20043;-79
2022/08/20 04:44:09;;;;;;;0.10;0.10;;;;;;;20.13;65.96;101701.84;5093957;28;20028;-79
2022/08/20 04:46:37;;;;;;;0.10;0.10;;;;;;;20.08;66.30;101695.78;5086253;28;20035;-78
2022/08/20 04:49:04;;;;;;;0.10;0.10;;;;;;;20.05;66.44;101704.88;5073367;28;20060;-78
2022/08/20 04:51:32;;;;;;;0.17;0.17;;;;;;;20.02;66.39;101713.06;5073469;28;20115;-78
2022/08/20 04:54:02;;;;;;;0.10;0.10;;;;;;;19.98;66.29;101720.41;5073665;28;20056;-79
2022/08/20 04:56:33;;;;;;;0.10;0.10;;;;;;;19.98;66.40;101719.56;5073872;28;20052;-78
2022/08/20 04:59:03;;;;;;;0.10;0.10;;;;;;;19.95;66.34;101715.19;5073207;28;20035;-78
2022/08/20 05:01:30;;;;;;;0.10;0.10;;;;;;;19.93;66.49;101716.19;5072958;28;20032;-78
2022/08/20 05:03:57;;;;;;;0.20;0.20;;;;;;;19.92;66.79;101715.31;5075514;28;20052;-79
2022/08/20 05:06:28;;;;;;;0.10;0.10;;;;;;;19.91;66.70;101718.94;5075000;28;20056;-78
2022/08/20 05:08:57;;;;;;;0.20;0.20;;;;;;;19.88;66.73;101719.94;5074193;28;20397;-78
2022/08/20 05:11:24;;;;;;;0.10;0.10;;;;;;;19.87;66.57;101722.72;5073391;28;20024;-78
2022/08/20 05:13:51;;;;;;;0.10;0.10;;;;;;;19.87;66.72;101731.66;5063044;28;20498;-78
2022/08/20 05:16:18;;;;;;;0.10;0.10;;;;;;;19.85;66.83;101738.03;5064746;28;20024;-78
2022/08/20 05:18:45;;;;;;;0.10;0.10;;;;;;;19.84;66.64;101736.31;5064681;28;20081;-78
2022/08/20 05:21:11;;;;;;;0.10;0.10;;;;;;;19.85;66.91;101736.25;5068205;28;20047;-78
2022/08/20 05:23:41;;;;;;;0.20;0.20;;;;;;;19.86;67.04;101729.03;5073145;28;20037;-78
2022/08/20 05:26:09;;;;;;;0.20;0.20;;;;;;;19.88;66.73;101736.09;5073817;28;20039;-78
2022/08/20 05:28:37;;;;;;;0.10;0.10;;;;;;;19.89;66.90;101736.97;5073976;28;20402;-78
2022/08/20 05:31:08;;;;;;;0.10;0.10;;;;;;;19.94;66.77;101745.72;5073508;28;20452;-78
2022/08/20 05:33:35;;;;;;;0.10;0.10;;;;;;;19.95;66.98;101747.47;5074197;28;20024;-78
2022/08/20 05:36:01;;;;;;;0.10;0.10;;;;;;;19.95;67.08;101744.78;5074799;28;20509;-78
2022/08/20 05:38:28;;;;;;;0.10;0.10;;;;;;;19.96;67.36;101735.78;5073427;28;20029;-79
2022/08/20 05:40:54;;;;;;;0.20;0.20;;;;;;;19.99;67.40;101749.06;5073838;28;20029;-78
2022/08/20 05:43:20;;;;;;;0.22;0.22;;;;;;;20.05;67.01;101747.91;5076821;28;20025;-78
2022/08/20 05:45:51;;;;;;;0.10;0.10;;;;;;;20.05;67.10;101756.00;5086437;28;20043;-79
2022/08/20 05:48:21;;;;;;;0.20;0.20;;;;;;;20.08;67.30;101763.06;5074024;28;20477;-78
2022/08/20 05:50:49;;;;;;;0.10;0.10;;;;;;;20.10;67.08;101756.66;5073239;28;20175;-78
2022/08/20 05:53:16;;;;;;;0.30;0.30;;;;;;;20.13;67.10;101764.56;5058205;28;20039;-79
2022/08/20 05:55:44;;;;;;;0.20;0.20;;;;;;;20.16;66.71;101763.56;5064997;28;20029;-78
2022/08/20 05:58:21;;;;;;;0.10;0.10;;;;;;;20.35;66.33;101760.91;5059712;28;20017;-78
2022/08/20 06:00:48;;;;;;;0.15;0.15;;;;;;;20.36;66.26;101760.81;5053279;28;20021;-79
2022/08/20 06:06:00;;;;;;;0.25;0.25;;;;;;;20.48;66.07;101771.97;5053441;28;20048;-79
2022/08/20 06:08:27;;;;;;;0.10;0.10;;;;;;;20.49;66.04;101773.72;5053792;28;20024;-79
2022/08/20 06:10:55;;;;;;;0.10;0.10;;;;;;;20.55;65.99;101768.03;5052876;28;20554;-79
2022/08/20 06:13:21;;;;;;;0.47;0.47;;;;;;;20.57;65.55;101766.13;5053860;28;20510;-79
2022/08/20 06:15:48;;;;;;;0.20;0.20;;;;;;;20.64;65.32;101777.50;5053148;28;20071;-78
2022/08/20 06:18:14;;;;;;;0.32;0.32;;;;;;;20.70;65.15;101761.06;5053243;28;20376;-78
2022/08/20 06:20:41;;;;;;;0.10;0.10;;;;;;;20.78;65.01;101763.41;5052948;28;20534;-78
2022/08/20 06:23:07;;;;;;;0.82;0.82;;;;;;;20.81;64.72;101766.81;5052767;28;20054;-79
2022/08/20 06:25:34;;;;;;;0.13;0.13;;;;;;;20.88;64.35;101764.69;5053075;28;20040;-79
2022/08/20 06:28:02;;;;;;;0.10;0.10;;;;;;;20.90;64.29;101757.41;5053587;28;20510;-78
2022/08/20 06:30:29;;;;;;;0.10;0.10;;;;;;;20.92;63.74;101758.22;5056199;28;20221;-79
2022/08/20 06:32:55;;;;;;;0.38;0.38;;;;;;;20.96;62.76;101756.22;5056114;28;20386;-79
2022/08/20 06:35:21;;;;;;;0.10;0.10;;;;;;;21.00;62.40;101747.91;5070887;28;20028;-79
2022/08/20 06:37:49;;;;;;;0.10;0.10;;;;;;;21.06;62.08;101762.03;5076858;28;20032;-78
2022/08/20 06:40:21;;;;;;;0.10;0.10;;;;;;;21.12;61.21;101769.81;5076388;28;20028;-80
2022/08/20 06:42:47;;;;;;;0.30;0.30;;;;;;;21.15;61.90;101769.66;5075982;28;20210;-77
2022/08/20 06:45:17;;;;;;;0.10;0.10;;;;;;;21.19;61.80;101763.16;5067549;28;20036;-78
2022/08/20 06:47:46;;;;;;;0.10;0.10;;;;;;;21.22;60.28;101772.91;5070180;28;20033;-78
2022/08/20 06:50:17;;;;;;;0.10;0.10;;;;;;;21.28;60.96;101768.13;5067194;28;20079;-78
2022/08/20 06:52:46;;;;;;;0.10;0.10;;;;;;;21.28;60.92;101773.50;5069701;28;20032;-78
2022/08/20 06:55:14;;;;;;;0.10;0.10;;;;;;;21.31;60.44;101778.72;5065969;28;20819;-78
2022/08/20 06:57:42;;;;;;;0.10;0.10;;;;;;;21.30;59.63;101776.97;5065842;28;20028;-78
2022/08/20 07:00:15;;;;;;;0.10;0.10;;;;;;;21.37;58.24;101771.28;5067577;28;20493;-78
2022/08/20 07:02:41;;;;;;;0.40;0.40;;;;;;;21.41;58.62;101778.25;5069122;28;20025;-79
2022/08/20 07:05:07;;;;;;;0.10;0.10;;;;;;;21.46;58.27;101778.91;5076298;28;20121;-79
2022/08/20 07:07:34;;;;;;;0.10;0.10;;;;;;;21.44;56.83;101778.97;5076793;28;20047;-79
2022/08/20 07:10:07;;;;;;;0.15;0.15;;;;;;;21.49;56.04;101786.81;5076401;28;20029;-78
2022/08/20 07:12:35;;;;;;;0.10;0.10;;;;;;;21.51;55.69;101787.63;5075733;28;20111;-79
2022/08/20 07:15:04;;;;;;;2.30;0.95;;;;;;;21.57;56.43;101784.66;5075536;28;20020;-79
2022/08/20 07:17:33;;;;;;;0.43;0.22;;;;;;;21.66;56.65;101796.78;5075697;28;20032;-79
2022/08/20 07:20:05;;;;;;;0.10;0.10;;;;;;;21.51;55.48;101790.31;5074957;28;20186;-79
2022/08/20 07:22:34;;;;;;;0.10;0.10;;;;;;;21.59;56.67;101796.22;5074530;28;20044;-79
2022/08/20 07:25:01;;;;;;;0.10;0.10;;;;;;;21.63;56.28;101791.53;5075594;28;20035;-79
2022/08/20 07:27:27;;;;;;;0.30;0.30;;;;;;;21.64;55.18;101802.22;5075904;28;20043;-80
2022/08/20 07:32:40;;;;;;;0.10;0.10;;;;;;;21.78;55.12;101793.47;5073868;28;20488;-79
2022/08/20 07:35:09;;;;;;;0.10;0.10;;;;;;;21.83;55.01;101801.28;5074690;28;20028;-79
2022/08/20 07:37:39;;;;;;;0.13;0.13;;;;;;;21.83;50.66;101795.88;5074201;28;20367;-78
2022/08/20 07:40:08;;;;;;;0.10;0.10;;;;;;;21.95;52.63;101800.63;5076051;28;20052;-79
2022/08/20 07:42:34;;;;;;;0.10;0.10;;;;;;;22.04;54.43;101799.28;5075734;28;20032;-79
2022/08/20 07:45:02;;;;;;;0.10;0.10;;;;;;;22.11;52.35;101800.69;5076033;28;20039;-79
2022/08/20 07:47:29;;;;;;;0.10;0.10;;;;;;;22.20;54.95;101810.13;5076446;28;20036;-79
2022/08/20 07:49:55;;;;;;;0.10;0.10;;;;;;;22.23;52.94;101803.69;5076359;28;20041;-79
2022/08/20 07:52:21;;;;;;;0.63;0.63;;;;;;;22.24;51.45;101802.75;5075316;28;20032;-79
2022/08/20 07:54:47;;;;;;;0.73;0.73;;;;;;;22.30;50.84;101805.97;5075851;28;20029;-79
2022/08/20 07:57:13;;;;;;;0.10;0.10;;;;;;;22.43;50.24;101808.03;5075656;28;20576;-79
2022/08/20 07:59:39;;;;;;;0.20;0.20;;;;;;;22.46;49.19;101799.78;5075582;28;20478;-79
2022/08/20 08:02:06;;;;;;;0.10;0.10;;;;;;;22.53;51.21;101808.41;5075380;28;20397;-79
2022/08/20 08:04:33;;;;;;;0.82;0.82;;;;;;;22.58;50.12;101809.91;5075359;28;20107;-79
2022/08/20 08:06:59;;;;;;;0.10;0.10;;;;;;;22.67;52.21;101815.72;5075520;28;20021;-79
2022/08/20 08:09:27;;;;;;;0.22;0.22;;;;;;;22.66;48.37;101816.72;5075063;28;20040;-78
2022/08/20 08:11:56;;;;;;;0.10;0.10;;;;;;;22.72;47.20;101814.53;5074181;28;20043;-79
2022/08/20 08:14:26;;;;;;;0.10;0.10;;;;;;;22.79;44.25;101820.44;5075261;28;20021;-79
2022/08/20 08:16:58;;;;;;;0.10;0.10;;;;;;;22.89;45.97;101816.28;5076572;28;20119;-79
2022/08/20 08:19:26;;;;;;;0.20;0.20;;;;;;;23.01;47.88;101813.84;5076119;28;20032;-79
2022/08/20 08:21:54;;;;;;;0.10;0.10;;;;;;;23.03;44.82;101815.50;5075615;28;20028;-78
2022/08/20 08:24:20;;;;;;;0.30;0.30;;;;;;;23.06;43.51;101812.59;5075841;28;20386;-79
2022/08/20 08:26:48;;;;;;;0.85;0.85;;;;;;;23.18;47.16;101813.78;5075505;28;20126;-79
2022/08/20 08:29:15;;;;;;;0.10;0.10;;;;;;;23.23;43.77;101817.06;5075133;28;20107;-79
2022/08/20 08:31:41;;;;;;;0.75;0.57;;;;;;;23.32;43.84;101817.50;5075062;28;20035;-79
2022/08/20 08:34:08;;;;;;;0.17;0.17;;;;;;;23.41;46.06;101814.25;5075782;28;20111;-79
2022/08/20 08:36:34;;;;;;;0.10;0.10;;;;;;;23.45;44.62;101815.81;5075486;28;20025;-79
2022/08/20 08:39:03;;;;;;;0.45;0.45;;;;;;;23.49;44.80;101817.38;5075745;28;20043;-78
2022/08/20 08:44:21;;;;;;;0.10;0.10;;;;;;;23.61;44.19;101818.47;5110587;27;20380;-77
2022/08/20 08:46:52;;;;;;;0.50;0.50;;;;;;;23.59;40.95;101823.97;5112095;28;20036;-80
2022/08/20 08:49:23;;;;;;;0.30;0.30;;;;;;;23.72;42.72;101825.94;5112788;28;20027;-80
2022/08/20 08:51:58;;;;;;;0.10;0.10;;;;;;;23.74;42.80;101826.75;5112502;28;20101;-81
2022/08/20 08:54:28;;;;;;;0.10;0.10;;;;;;;23.70;40.60;101827.88;5112462;28;20034;-80
2022/08/20 08:56:54;;;;;;;0.10;0.10;;;;;;;23.86;40.42;101823.28;5112642;28;20031;-80
2022/08/20 08:59:22;;;;;;;0.10;0.10;;;;;;;23.94;42.86;101830.97;5113041;28;20039;-80
2022/08/20 09:01:52;;;;;;;0.20;0.20;;;;;;;24.01;40.52;101829.63;5112427;28;20084;-80
2022/08/20 09:04:20;;;;;;;0.10;0.10;;;;;;;23.95;39.17;101826.41;5112676;28;20054;-80
2022/08/20 09:06:49;;;;;;;0.20;0.20;;;;;;;24.17;40.46;101823.25;5112102;28;20028;-80
2022/08/20 09:09:25;;;;;;;0.15;0.15;;;;;;;24.27;40.54;101828.97;5112242;28;20042;-80
2022/08/20 09:11:55;;;;;;;0.10;0.10;;;;;;;24.22;40.19;101831.97;5110982;28;20032;-80
2022/08/20 09:14:23;;;;;;;0.35;0.35;;;;;;;24.34;40.35;101824.94;5112122;28;20020;-80
2022/08/20 09:16:50;;;;;;;0.10;0.10;;;;;;;24.51;40.01;101827.44;5111104;28;20031;-77
2022/08/20 09:19:16;;;;;;;0.40;0.40;;;;;;;24.60;40.82;101825.09;5110283;28;20051;-77
2022/08/20 09:21:43;;;;;;;0.17;0.17;;;;;;;24.75;40.65;101823.25;5109011;28;20028;-78
2022/08/20 09:24:10;;;;;;;0.17;0.17;;;;;;;24.84;41.25;101826.25;5110108;28;20070;-78
2022/08/20 09:26:36;;;;;;;0.10;0.10;;;;;;;24.90;37.77;101824.09;5110715;28;20096;-78
2022/08/20 09:29:02;;;;;;;0.10;0.10;;;;;;;25.06;38.38;101826.69;5110945;28;20092;-80
2022/08/20 09:31:28;;;;;;;0.10;0.10;;;;;;;25.09;39.03;101824.66;5109918;28;20118;-78
2022/08/20 09:33:54;;;;;;;0.10;0.10;;;;;;;25.26;39.30;101817.22;5109149;28;20485;-77
2022/08/20 09:36:20;;;;;;;0.10;0.10;;;;;;;25.37;40.39;101820.13;5109967;28;20481;-77
2022/08/20 09:38:46;;;;;;;0.10;0.10;;;;;;;25.47;39.37;101821.25;5110359;28;20034;-77
2022/08/20 09:41:13;;;;;;;0.08;0.08;;;;;;;25.60;39.85;101815.00;5109294;28;20408;-78
2022/08/20 09:43:39;;;;;;;0.10;0.10;;;;;;;25.76;40.08;101815.66;5109047;28;20105;-77
2022/08/20 09:46:06;;;;;;;0.10;0.10;;;;;;;25.79;38.84;101814.59;5108095;28;20032;-77
2022/08/20 09:48:32;;;;;;;0.10;0.10;;;;;;;25.85;39.34;101814.16;5107771;28;20046;-77
2022/08/20 09:50:59;;;;;;;1.15;0.73;;;;;;;25.86;38.66;101810.47;5107388;28;20400;-76
2022/08/20 09:53:25;;;;;;;0.13;0.13;;;;;;;25.96;38.74;101816.13;5106441;28;20031;-77
2022/08/20 09:55:54;;;;;;;0.10;0.10;;;;;;;26.10;37.84;101807.88;5093753;28;20032;-77
2022/08/20 09:58:34;;;;;;;0.50;0.50;;;;;;;26.05;35.76;101799.16;5094282;28;20035;-76
2022/08/20 10:01:09;;;;;;;0.15;0.15;;;;;;;26.13;36.56;101801.38;5094063;28;20056;-78
2022/08/20 10:03:36;;;;;;;0.57;0.57;;;;;;;25.90;35.57;101806.56;5096453;28;20081;-78
2022/08/20 10:06:02;;;;;;;0.60;0.60;;;;;;;25.89;35.59;101809.38;5095641;28;20040;-77
2022/08/20 10:08:28;;;;;;;0.20;0.20;;;;;;;25.95;36.34;101806.25;5095769;28;20067;-77
2022/08/20 10:10:54;;;;;;;2.20;1.42;;;;;;;25.81;36.62;101808.06;5093974;28;20028;-77
2022/08/20 10:13:20;;;;;;;0.10;0.10;;;;;;;25.88;36.72;101799.50;5094870;28;20024;-77
2022/08/20 10:15:47;;;;;;;0.10;0.10;;;;;;;26.11;36.80;101801.50;5094522;28;20037;-78
2022/08/20 10:18:13;;;;;;;0.10;0.10;;;;;;;26.18;36.63;101803.78;5094841;28;20043;-77
2022/08/20 10:20:40;;;;;;;0.10;0.10;;;;;;;26.30;36.68;101795.59;5095279;28;20484;-78
2022/08/20 10:23:06;;;;;;;0.10;0.10;;;;;;;26.40;37.72;101795.81;5095015;28;20027;-77
2022/08/20 10:25:32;;;;;;;0.17;0.17;;;;;;;26.14;36.31;101801.28;5094817;28;20046;-77
2022/08/20 10:27:58;;;;;;;0.10;0.10;;;;;;;26.09;35.69;101795.28;5094596;28;20028;-76
2022/08/20 10:32:53;;;;;;;0.10;0.10;;;;;;;26.25;35.49;101799.66;5071911;28;20040;-76
2022/08/20 10:35:19;;;;;;;0.20;0.20;;;;;;;26.52;37.84;101796.78;5074048;28;20045;-77
2022/08/20 10:37:45;;;;;;;0.28;0.28;;;;;;;26.70;37.78;101794.53;5075484;28;20032;-78
2022/08/20 10:40:14;;;;;;;0.35;0.35;;;;;;;26.69;38.45;101798.25;5080019;28;20102;-77
2022/08/20 10:42:42;;;;;;;0.10;0.10;;;;;;;26.62;37.66;101796.97;5094502;28;20028;-77
2022/08/20 10:45:10;;;;;;;0.10;0.10;;;;;;;26.55;39.17;101790.25;5094851;28;20509;-76
2022/08/20 10:47:36;;;;;;;0.10;0.10;;;;;;;26.46;37.19;101806.22;5094580;28;20056;-77
2022/08/20 10:50:06;;;;;;;0.20;0.20;;;;;;;26.42;38.54;101802.00;5094374;28;20042;-77
2022/08/20 10:52:32;;;;;;;0.28;0.28;;;;;;;26.23;36.94;101798.88;5095649;28;20032;-79
2022/08/20 10:54:58;;;;;;;0.10;0.10;;;;;;;26.20;37.23;101796.38;5097214;28;20489;-79
2022/08/20 10:57:28;;;;;;;0.10;0.10;;;;;;;26.40;38.71;101801.25;5096412;28;20024;-79
2022/08/20 10:59:56;;;;;;;0.10;0.10;;;;;;;26.68;38.54;101795.66;5096394;28;20153;-77
2022/08/20 11:02:23;;;;;;;0.15;0.15;;;;;;;26.84;38.14;101789.97;5094261;28;20031;-78
2022/08/20 11:04:50;;;;;;;0.10;0.10;;;;;;;27.10;38.22;101799.78;5096188;28;20036;-79
2022/08/20 11:10:04;;;;;;;0.13;0.13;;;;;;;27.51;35.50;101794.03;5100483;27;1582685;-78
2022/08/20 11:12:43;;;;;;;0.10;0.10;;;;;;;27.71;35.63;101800.66;5131464;28;20043;-78
2022/08/20 11:15:16;;;;;;;0.10;0.10;;;;;;;27.66;35.61;101794.72;5131365;27;20023;-77
2022/08/20 11:18:42;;;;;;;7.38;0.63;;;;;;;27.64;34.61;101793.94;5131105;27;20084;-77
2022/08/20 11:21:05;;;;;;;0.40;0.40;;;;;;;27.53;36.84;101803.81;5127280;27;20031;-77
2022/08/20 11:23:32;;;;;;;0.80;0.63;;;;;;;27.46;35.74;101801.69;5129724;28;20472;-77
2022/08/20 11:25:58;;;;;;;0.55;0.55;;;;;;;27.27;35.04;101814.81;5129812;27;20038;-77
2022/08/20 11:28:32;;;;;;;0.10;0.10;;;;;;;27.10;34.66;101798.91;5130071;28;20034;-79
2022/08/20 11:30:59;;;;;;;0.10;0.10;;;;;;;27.05;34.53;101810.13;5130316;27;20546;-78
2022/08/20 11:33:25;;;;;;;0.55;0.55;;;;;;;27.00;34.93;101801.44;5131472;27;20512;-79
2022/08/20 11:35:51;;;;;;;0.43;0.43;;;;;;;26.89;35.11;101806.81;5130748;28;20027;-78
2022/08/20 11:38:21;;;;;;;0.98;0.63;;;;;;;26.96;36.87;101806.22;5129783;28;20123;-78
2022/08/20 11:40:50;;;;;;;0.20;0.20;;;;;;;26.84;36.07;101795.41;5130162;27;20034;-80
2022/08/20 11:43:28;;;;;;;0.10;0.10;;;;;;;26.88;35.39;101796.91;5130754;28;20146;-78
2022/08/20 11:46:03;;;;;;;0.10;0.10;;;;;;;27.07;36.48;101801.88;5131272;27;20027;-78
2022/08/20 11:48:30;;;;;;;0.13;0.13;;;;;;;27.08;35.65;101807.19;5129685;28;20473;-78
2022/08/20 11:50:59;;;;;;;0.10;0.10;;;;;;;27.06;36.07;101798.25;5129186;27;20031;-78
2022/08/20 11:53:28;;;;;;;0.10;0.10;;;;;;;27.04;34.99;101802.97;5129631;27;20032;-78